Time;durP1;ratioP1;P1;durP2;ratioP2;P2;SDS_P1;SDS_P2;PMS_P1;PMS_P2;Temp;Humidity;BMP_temperature;BMP_pressure;BME280_temperature;BME280_humidity;BME280_pressure;Samples;Min_cycle;Max_cycle;Signal;HPM_P1;HPM_P2
2023/11/27 00:00:55;;;;;;;22.27;8.87;;;;;;;;;;5038155;28;20009;-66
2023/11/27 00:03:20;;;;;;;25.80;8.63;;;;;;;;;;5040450;28;20063;-64
2023/11/27 00:05:45;;;;;;;27.77;8.60;;;;;;;;;;5038390;28;20032;-65
2023/11/27 00:08:11;;;;;;;25.77;9.33;;;;;;;;;;5030286;28;20112;-64
2023/11/27 00:10:36;;;;;;;26.77;9.93;;;;;;;;;;5044883;28;20059;-64
2023/11/27 00:13:01;;;;;;;28.90;9.90;;;;;;;;;;5036519;28;20029;-64
2023/11/27 00:15:27;;;;;;;34.70;11.43;;;;;;;;;;5040081;28;20024;-65
2023/11/27 00:17:52;;;;;;;33.20;11.70;;;;;;;;;;5036129;28;20782;-64
2023/11/27 00:20:18;;;;;;;39.80;13.17;;;;;;;;;;5037532;28;20024;-65
2023/11/27 00:22:43;;;;;;;36.67;12.73;;;;;;;;;;5037719;28;20048;-63
2023/11/27 00:25:08;;;;;;;41.10;13.30;;;;;;;;;;5035895;28;20058;-65
2023/11/27 00:27:34;;;;;;;41.20;13.43;;;;;;;;;;5039560;28;20580;-64
2023/11/27 00:29:59;;;;;;;38.33;13.83;;;;;;;;;;5035118;28;20017;-62
2023/11/27 00:32:25;;;;;;;35.50;13.53;;;;;;;;;;5034280;28;20045;-65
2023/11/27 00:34:50;;;;;;;39.10;14.67;;;;;;;;;;5040340;28;20025;-64
2023/11/27 00:37:16;;;;;;;44.87;15.97;;;;;;;;;;5037633;28;20016;-65
2023/11/27 00:39:42;;;;;;;43.97;16.10;;;;;;;;;;5035724;28;20078;-66
2023/11/27 00:42:07;;;;;;;44.47;16.43;;;;;;;;;;5037318;28;20021;-65
2023/11/27 00:44:32;;;;;;;45.00;16.47;;;;;;;;;;5034191;28;20055;-64
2023/11/27 00:46:58;;;;;;;54.37;17.53;;;;;;;;;;5040521;28;20009;-62
2023/11/27 00:49:23;;;;;;;51.17;17.70;;;;;;;;;;5032596;28;20370;-64
2023/11/27 00:51:49;;;;;;;46.73;18.03;;;;;;;;;;5038517;28;20045;-65
2023/11/27 00:54:14;;;;;;;51.50;17.67;;;;;;;;;;5034346;28;20017;-64
2023/11/27 00:56:40;;;;;;;52.97;18.40;;;;;;;;;;5038362;28;20009;-64
2023/11/27 00:59:06;;;;;;;59.10;19.10;;;;;;;;;;5042227;28;20021;-65
2023/11/27 01:01:32;;;;;;;50.53;18.27;;;;;;;;;;5036790;28;20114;-64
2023/11/27 01:03:57;;;;;;;68.40;21.23;;;;;;;;;;5035255;28;20025;-65
2023/11/27 01:06:23;;;;;;;59.27;19.93;;;;;;;;;;5035442;28;20100;-63
2023/11/27 01:08:48;;;;;;;67.77;22.37;;;;;;;;;;5038418;28;20044;-64
2023/11/27 01:11:14;;;;;;;69.20;21.63;;;;;;;;;;5037967;28;20017;-63
2023/11/27 01:13:39;;;;;;;69.23;23.20;;;;;;;;;;5040780;28;20032;-65
2023/11/27 01:16:04;;;;;;;81.60;25.93;;;;;;;;;;5029365;28;20013;-64
2023/11/27 01:18:30;;;;;;;90.83;29.03;;;;;;;;;;5034451;28;20385;-66
2023/11/27 01:20:56;;;;;;;97.93;29.67;;;;;;;;;;5032909;28;20018;-66
2023/11/27 01:23:21;;;;;;;93.70;30.13;;;;;;;;;;5036835;28;20535;-66
2023/11/27 01:25:46;;;;;;;96.57;31.87;;;;;;;;;;5040662;28;20021;-63
2023/11/27 01:28:12;;;;;;;114.07;33.80;;;;;;;;;;5038288;28;20036;-63
2023/11/27 01:30:37;;;;;;;103.57;31.43;;;;;;;;;;5036134;28;20024;-66
2023/11/27 01:33:06;;;;;;;103.53;32.73;;;;;;;;;;5040063;28;20020;-65
2023/11/27 01:35:32;;;;;;;94.77;32.10;;;;;;;;;;5035453;28;20022;-65
2023/11/27 01:37:57;;;;;;;104.97;32.03;;;;;;;;;;5035336;28;20100;-63
2023/11/27 01:40:22;;;;;;;110.43;34.63;;;;;;;;;;5034158;28;20036;-63
2023/11/27 01:42:48;;;;;;;104.97;32.93;;;;;;;;;;5035697;28;20021;-64
2023/11/27 01:45:13;;;;;;;106.73;34.70;;;;;;;;;;5036363;28;20480;-65
2023/11/27 01:47:38;;;;;;;106.93;34.93;;;;;;;;;;5033275;28;20025;-64
2023/11/27 01:50:05;;;;;;;115.83;36.73;;;;;;;;;;5038331;28;20074;-64
2023/11/27 01:52:31;;;;;;;118.43;35.53;;;;;;;;;;5036860;28;20465;-63
2023/11/27 01:54:57;;;;;;;108.93;35.07;;;;;;;;;;5039723;28;20080;-65
2023/11/27 01:57:22;;;;;;;107.63;35.50;;;;;;;;;;5036393;28;20029;-65
2023/11/27 01:59:49;;;;;;;116.00;34.77;;;;;;;;;;5035343;28;20337;-63
2023/11/27 02:02:14;;;;;;;119.17;35.53;;;;;;;;;;5034981;28;20033;-63
2023/11/27 02:04:39;;;;;;;115.40;34.80;;;;;;;;;;5038984;28;20026;-63
2023/11/27 02:07:05;;;;;;;120.47;35.43;;;;;;;;;;5043015;28;20052;-65
2023/11/27 02:09:30;;;;;;;107.70;35.87;;;;;;;;;;5042283;28;20025;-64
2023/11/27 02:11:56;;;;;;;106.57;35.83;;;;;;;;;;5046057;28;20108;-65
2023/11/27 02:14:21;;;;;;;110.53;34.90;;;;;;;;;;5040490;28;20524;-64
2023/11/27 02:16:47;;;;;;;112.57;36.63;;;;;;;;;;5046875;28;20593;-63
2023/11/27 02:19:16;;;;;;;122.93;36.03;;;;;;;;;;5044021;28;20033;-64
2023/11/27 02:21:41;;;;;;;119.93;35.10;;;;;;;;;;5047608;28;20527;-64
2023/11/27 02:24:06;;;;;;;109.73;33.93;;;;;;;;;;5041069;28;20021;-65
2023/11/27 02:26:32;;;;;;;108.10;33.57;;;;;;;;;;5040552;28;20025;-64
2023/11/27 02:28:57;;;;;;;107.60;35.00;;;;;;;;;;5044441;28;20059;-65
2023/11/27 02:31:22;;;;;;;100.37;33.30;;;;;;;;;;5037793;28;20497;-62
2023/11/27 02:33:48;;;;;;;95.00;32.73;;;;;;;;;;5043893;28;20040;-64
2023/11/27 02:36:13;;;;;;;96.50;32.23;;;;;;;;;;5043640;28;20507;-64
2023/11/27 02:38:38;;;;;;;97.83;32.60;;;;;;;;;;5042771;28;20020;-65
2023/11/27 02:41:05;;;;;;;95.30;32.87;;;;;;;;;;5042507;28;20017;-63
2023/11/27 02:43:30;;;;;;;97.60;32.60;;;;;;;;;;5042341;28;20465;-64
2023/11/27 02:45:55;;;;;;;93.10;32.53;;;;;;;;;;5038876;28;20028;-64
2023/11/27 02:48:21;;;;;;;84.80;31.47;;;;;;;;;;5043758;28;20724;-63
2023/11/27 02:50:47;;;;;;;94.40;31.20;;;;;;;;;;5038650;28;20026;-63
2023/11/27 02:53:13;;;;;;;92.80;31.50;;;;;;;;;;5043658;28;20021;-64
2023/11/27 02:55:38;;;;;;;86.00;31.67;;;;;;;;;;5043623;28;20027;-63
2023/11/27 02:58:03;;;;;;;92.97;30.97;;;;;;;;;;5043204;28;20024;-63
2023/11/27 03:00:28;;;;;;;81.47;30.30;;;;;;;;;;5045381;28;20111;-63
2023/11/27 03:02:54;;;;;;;77.63;28.87;;;;;;;;;;5041344;28;20420;-63
2023/11/27 03:05:19;;;;;;;85.27;30.77;;;;;;;;;;5043763;28;20078;-62
2023/11/27 03:07:44;;;;;;;77.53;29.73;;;;;;;;;;5044621;28;20075;-63
2023/11/27 03:10:12;;;;;;;82.60;29.77;;;;;;;;;;5042007;28;20461;-62
2023/11/27 03:12:38;;;;;;;77.53;29.03;;;;;;;;;;5042981;28;20416;-62
2023/11/27 03:15:05;;;;;;;78.13;29.53;;;;;;;;;;5045335;28;20056;-62
2023/11/27 03:17:30;;;;;;;72.77;28.07;;;;;;;;;;5045266;28;20040;-64
2023/11/27 03:19:55;;;;;;;76.43;29.60;;;;;;;;;;5045231;28;20021;-62
2023/11/27 03:22:23;;;;;;;70.33;27.80;;;;;;;;;;5036840;28;20045;-62
2023/11/27 03:24:48;;;;;;;76.27;27.30;;;;;;;;;;5038825;28;20177;-62
2023/11/27 03:27:13;;;;;;;66.00;26.67;;;;;;;;;;5039191;28;20030;-62
2023/11/27 03:29:39;;;;;;;74.97;27.97;;;;;;;;;;5037384;28;20365;-62
2023/11/27 03:32:04;;;;;;;71.03;27.70;;;;;;;;;;5044741;28;20204;-62
2023/11/27 03:34:29;;;;;;;70.97;26.97;;;;;;;;;;5037118;28;20059;-61
2023/11/27 03:36:55;;;;;;;64.10;26.07;;;;;;;;;;5042822;28;20442;-63
2023/11/27 03:39:20;;;;;;;66.33;24.57;;;;;;;;;;5036354;28;20029;-63
2023/11/27 03:41:45;;;;;;;61.07;26.77;;;;;;;;;;5033756;28;20113;-64
2023/11/27 03:44:10;;;;;;;66.80;26.60;;;;;;;;;;5042272;28;20025;-62
2023/11/27 03:46:36;;;;;;;64.10;26.07;;;;;;;;;;5033309;28;20029;-63
2023/11/27 03:49:01;;;;;;;59.00;26.30;;;;;;;;;;5042016;28;20013;-62
2023/11/27 03:51:26;;;;;;;60.03;24.97;;;;;;;;;;5035862;28;20552;-62
2023/11/27 03:53:52;;;;;;;56.80;24.57;;;;;;;;;;5035241;28;20029;-61
2023/11/27 03:56:17;;;;;;;52.37;23.23;;;;;;;;;;5039668;28;20026;-63
2023/11/27 03:58:42;;;;;;;59.90;25.43;;;;;;;;;;5033813;28;20108;-62
2023/11/27 04:01:08;;;;;;;52.33;21.73;;;;;;;;;;5039656;28;20075;-64
2023/11/27 04:03:35;;;;;;;53.20;23.53;;;;;;;;;;5037922;28;20025;-63
2023/11/27 04:06:01;;;;;;;46.83;21.30;;;;;;;;;;5039716;28;20378;-63
2023/11/27 04:08:26;;;;;;;44.60;21.43;;;;;;;;;;5040248;28;20025;-64
2023/11/27 04:10:52;;;;;;;42.57;18.97;;;;;;;;;;5042808;28;20037;-63
2023/11/27 04:13:18;;;;;;;43.13;19.27;;;;;;;;;;5037414;28;21055;-62
2023/11/27 04:15:44;;;;;;;37.30;18.33;;;;;;;;;;5042005;28;20009;-63
2023/11/27 04:18:09;;;;;;;38.43;18.80;;;;;;;;;;5039705;28;20699;-70
2023/11/27 04:20:34;;;;;;;36.33;17.40;;;;;;;;;;5038258;28;20025;-70
2023/11/27 04:22:59;;;;;;;39.50;17.93;;;;;;;;;;5040434;28;20044;-68
2023/11/27 04:25:25;;;;;;;36.90;18.80;;;;;;;;;;5042966;28;20055;-70
2023/11/27 04:27:51;;;;;;;34.17;16.57;;;;;;;;;;5042225;28;20036;-67
2023/11/27 04:30:16;;;;;;;35.40;16.50;;;;;;;;;;5039166;28;20027;-65
2023/11/27 04:32:42;;;;;;;34.57;16.57;;;;;;;;;;5039500;28;20017;-68
2023/11/27 04:35:07;;;;;;;35.50;16.80;;;;;;;;;;5040786;28;20029;-70
2023/11/27 04:37:32;;;;;;;37.40;17.03;;;;;;;;;;5033864;28;20516;-70
2023/11/27 04:39:58;;;;;;;31.07;16.03;;;;;;;;;;5038094;28;20021;-69
2023/11/27 04:42:25;;;;;;;32.20;15.87;;;;;;;;;;5037283;28;20100;-69
2023/11/27 04:44:50;;;;;;;30.40;15.93;;;;;;;;;;5038431;28;20025;-70
2023/11/27 04:47:16;;;;;;;30.03;15.30;;;;;;;;;;5037363;28;20044;-69
2023/11/27 04:49:41;;;;;;;32.80;16.13;;;;;;;;;;5033713;28;20067;-69
2023/11/27 04:52:07;;;;;;;34.33;16.60;;;;;;;;;;5036804;28;20385;-66
2023/11/27 04:54:33;;;;;;;36.50;17.40;;;;;;;;;;5034460;28;20040;-69
2023/11/27 04:56:58;;;;;;;30.63;15.37;;;;;;;;;;5038551;28;20457;-66
2023/11/27 04:59:23;;;;;;;30.30;15.83;;;;;;;;;;5037238;28;20032;-68
2023/11/27 05:01:48;;;;;;;34.07;16.83;;;;;;;;;;5037053;28;20457;-69
2023/11/27 05:04:17;;;;;;;33.03;16.43;;;;;;;;;;5036561;28;20012;-67
2023/11/27 05:06:43;;;;;;;35.30;16.93;;;;;;;;;;5037956;28;20519;-67
2023/11/27 05:09:08;;;;;;;32.73;16.83;;;;;;;;;;5036639;28;20013;-69
2023/11/27 05:11:33;;;;;;;32.60;16.00;;;;;;;;;;5036849;28;20024;-69
2023/11/27 05:13:59;;;;;;;30.53;16.10;;;;;;;;;;5041005;28;20464;-67
2023/11/27 05:16:24;;;;;;;32.83;15.73;;;;;;;;;;5042385;28;20072;-68
2023/11/27 05:18:49;;;;;;;30.23;15.47;;;;;;;;;;5042163;28;20067;-69
2023/11/27 05:21:14;;;;;;;32.60;16.13;;;;;;;;;;5038983;28;20264;-66
2023/11/27 05:23:43;;;;;;;33.37;16.23;;;;;;;;;;5037238;28;20139;-68
2023/11/27 05:26:09;;;;;;;31.70;15.67;;;;;;;;;;5037971;28;20087;-67
2023/11/27 05:28:35;;;;;;;25.73;14.60;;;;;;;;;;5035155;28;20026;-66
2023/11/27 05:31:00;;;;;;;29.47;14.43;;;;;;;;;;5036525;28;20021;-68
2023/11/27 05:33:26;;;;;;;26.53;14.37;;;;;;;;;;5037907;28;20052;-68
2023/11/27 05:35:51;;;;;;;23.67;13.03;;;;;;;;;;5040450;28;20017;-67
2023/11/27 05:38:16;;;;;;;24.63;13.13;;;;;;;;;;5037798;28;20089;-68
2023/11/27 05:40:42;;;;;;;23.80;12.57;;;;;;;;;;5031808;28;20033;-68
2023/11/27 05:43:07;;;;;;;26.63;12.80;;;;;;;;;;5036937;28;20202;-65
2023/11/27 05:45:34;;;;;;;23.60;12.17;;;;;;;;;;5036017;28;20028;-66
2023/11/27 05:47:59;;;;;;;24.03;12.40;;;;;;;;;;5032025;28;20055;-68
2023/11/27 05:50:25;;;;;;;23.57;12.57;;;;;;;;;;5042404;28;20064;-65
2023/11/27 05:52:50;;;;;;;22.60;12.23;;;;;;;;;;5039086;28;20021;-68
2023/11/27 05:55:15;;;;;;;20.57;11.47;;;;;;;;;;5038730;28;20385;-67
2023/11/27 05:57:41;;;;;;;21.03;11.90;;;;;;;;;;5034217;28;20022;-68
2023/11/27 06:00:06;;;;;;;25.30;12.27;;;;;;;;;;5031598;28;20022;-66
2023/11/27 06:02:31;;;;;;;22.80;12.03;;;;;;;;;;5038673;28;20100;-66
2023/11/27 06:04:57;;;;;;;22.70;12.57;;;;;;;;;;5039507;28;20021;-66
2023/11/27 06:07:22;;;;;;;23.90;12.10;;;;;;;;;;5041097;28;20052;-69
2023/11/27 06:09:48;;;;;;;24.67;13.10;;;;;;;;;;5035601;28;20596;-67
2023/11/27 06:12:13;;;;;;;23.43;13.57;;;;;;;;;;5033614;28;20051;-70
2023/11/27 06:14:39;;;;;;;21.43;12.33;;;;;;;;;;5039424;28;20481;-70
2023/11/27 06:17:05;;;;;;;26.47;13.17;;;;;;;;;;5035589;28;20013;-70
2023/11/27 06:19:30;;;;;;;27.37;14.27;;;;;;;;;;5037610;28;20023;-70
2023/11/27 06:21:56;;;;;;;23.93;11.40;;;;;;;;;;5036355;28;20080;-69
2023/11/27 06:24:21;;;;;;;24.90;13.73;;;;;;;;;;5038796;28;20488;-67
2023/11/27 06:26:46;;;;;;;27.17;13.63;;;;;;;;;;5039007;28;20032;-70
2023/11/27 06:29:12;;;;;;;24.53;13.73;;;;;;;;;;5037911;28;20551;-69
2023/11/27 06:31:37;;;;;;;22.83;12.43;;;;;;;;;;5038263;28;20078;-71
2023/11/27 06:34:03;;;;;;;24.77;13.27;;;;;;;;;;5036216;28;20437;-70
2023/11/27 06:36:28;;;;;;;25.07;13.63;;;;;;;;;;5038371;28;20017;-70
2023/11/27 06:38:54;;;;;;;28.17;13.40;;;;;;;;;;5038648;28;20032;-70
2023/11/27 06:41:19;;;;;;;24.07;13.07;;;;;;;;;;5035937;28;20466;-69
2023/11/27 06:43:45;;;;;;;19.17;9.73;;;;;;;;;;5037033;28;20580;-70
2023/11/27 06:46:14;;;;;;;24.03;12.30;;;;;;;;;;5033515;28;20026;-72
2023/11/27 06:48:39;;;;;;;24.07;12.17;;;;;;;;;;5033419;28;20064;-72
2023/11/27 06:51:04;;;;;;;22.17;12.03;;;;;;;;;;5031114;28;20021;-72
2023/11/27 06:53:30;;;;;;;22.17;11.77;;;;;;;;;;5036223;28;20018;-69
2023/11/27 06:55:55;;;;;;;19.90;10.67;;;;;;;;;;5045063;28;20017;-72
2023/11/27 06:58:21;;;;;;;20.30;11.37;;;;;;;;;;5038206;28;20028;-73
2023/11/27 07:00:46;;;;;;;23.67;13.33;;;;;;;;;;5035383;28;20025;-74
2023/11/27 07:03:12;;;;;;;18.87;10.17;;;;;;;;;;5038285;28;20889;-73
2023/11/27 07:05:37;;;;;;;23.10;9.93;;;;;;;;;;5037158;28;20478;-69
2023/11/27 07:08:03;;;;;;;22.80;11.30;;;;;;;;;;5031599;28;20025;-73
2023/11/27 07:10:29;;;;;;;19.63;10.40;;;;;;;;;;5036249;28;20365;-72
2023/11/27 07:12:54;;;;;;;21.13;10.70;;;;;;;;;;5038942;28;20010;-69
2023/11/27 07:15:20;;;;;;;22.87;10.13;;;;;;;;;;5040984;28;20037;-74
2023/11/27 07:17:45;;;;;;;23.73;12.87;;;;;;;;;;5040058;28;20017;-71
2023/11/27 07:20:17;;;;;;;19.63;10.50;;;;;;;;;;5034536;28;20029;-74
2023/11/27 07:22:43;;;;;;;20.53;11.17;;;;;;;;;;5042254;28;20056;-68
2023/11/27 07:25:08;;;;;;;18.97;10.87;;;;;;;;;;5043838;28;20028;-72
2023/11/27 07:27:33;;;;;;;13.90;7.97;;;;;;;;;;5038877;28;20057;-72
2023/11/27 07:30:01;;;;;;;15.50;8.40;;;;;;;;;;5035983;28;20020;-72
2023/11/27 07:32:26;;;;;;;17.43;8.93;;;;;;;;;;5041942;28;20426;-73
2023/11/27 07:34:51;;;;;;;14.13;7.33;;;;;;;;;;5040149;28;20068;-73
2023/11/27 07:37:16;;;;;;;15.13;8.47;;;;;;;;;;5039171;28;20021;-72
2023/11/27 07:39:44;;;;;;;16.10;8.43;;;;;;;;;;5038467;28;20037;-69
2023/11/27 07:42:09;;;;;;;12.57;6.47;;;;;;;;;;5039045;28;20037;-72
2023/11/27 07:44:35;;;;;;;15.93;8.47;;;;;;;;;;5037296;28;20021;-72
2023/11/27 07:47:00;;;;;;;13.23;6.70;;;;;;;;;;5039158;28;20926;-70
2023/11/27 07:49:25;;;;;;;12.10;6.60;;;;;;;;;;5037260;28;20025;-64
2023/11/27 07:51:57;;;;;;;12.67;6.73;;;;;;;;;;5039678;28;20450;-63
2023/11/27 07:54:22;;;;;;;11.70;5.80;;;;;;;;;;5035559;28;20025;-66
2023/11/27 07:56:48;;;;;;;12.67;6.70;;;;;;;;;;5036853;28;20028;-63
2023/11/27 07:59:14;;;;;;;9.37;4.87;;;;;;;;;;5035505;28;20028;-63
2023/11/27 08:01:39;;;;;;;9.23;4.90;;;;;;;;;;5038286;28;20031;-63
2023/11/27 08:04:04;;;;;;;9.03;4.57;;;;;;;;;;5036411;28;20674;-63
2023/11/27 08:06:29;;;;;;;10.97;5.20;;;;;;;;;;5045461;28;20325;-64
2023/11/27 08:08:57;;;;;;;9.93;5.33;;;;;;;;;;5034138;28;20376;-64
2023/11/27 08:11:32;;;;;;;12.70;5.77;;;;;;;;;;5034783;28;20457;-63
2023/11/27 08:13:58;;;;;;;7.53;4.07;;;;;;;;;;5040304;28;20029;-65
2023/11/27 08:16:23;;;;;;;11.73;6.40;;;;;;;;;;5030409;28;20018;-65
2023/11/27 08:18:49;;;;;;;13.37;6.70;;;;;;;;;;5032130;28;20029;-64
2023/11/27 08:21:14;;;;;;;13.73;6.50;;;;;;;;;;5043473;28;20143;-63
2023/11/27 08:23:42;;;;;;;10.97;5.67;;;;;;;;;;5038135;28;20128;-64
2023/11/27 08:26:07;;;;;;;10.57;6.20;;;;;;;;;;5039283;28;20029;-64
2023/11/27 08:28:33;;;;;;;10.70;5.93;;;;;;;;;;5031233;28;20582;-63
2023/11/27 08:30:58;;;;;;;11.20;5.80;;;;;;;;;;5040741;28;20021;-64
2023/11/27 08:33:25;;;;;;;10.57;5.67;;;;;;;;;;5040934;28;20127;-63
2023/11/27 08:35:51;;;;;;;7.63;3.90;;;;;;;;;;5040377;28;20029;-64
2023/11/27 08:38:16;;;;;;;10.37;5.53;;;;;;;;;;5036434;28;20040;-62
2023/11/27 08:40:42;;;;;;;7.87;3.97;;;;;;;;;;5040396;28;20025;-62
2023/11/27 08:43:07;;;;;;;8.77;4.90;;;;;;;;;;5037488;28;20665;-65
2023/11/27 08:45:33;;;;;;;6.67;2.90;;;;;;;;;;5039060;28;20029;-62
2023/11/27 08:48:00;;;;;;;9.47;5.40;;;;;;;;;;5037240;28;20343;-63
2023/11/27 08:50:27;;;;;;;6.77;3.60;;;;;;;;;;5037327;28;20021;-66
2023/11/27 08:52:57;;;;;;;9.40;5.50;;;;;;;;;;5033688;28;20600;-64
2023/11/27 08:55:28;;;;;;;8.33;4.63;;;;;;;;;;5036588;28;20540;-63
2023/11/27 08:57:53;;;;;;;7.40;3.85;;;;;;;;;;5035390;28;20385;-68
2023/11/27 09:00:18;;;;;;;9.93;4.73;;;;;;;;;;5036838;28;20025;-68
2023/11/27 09:02:44;;;;;;;7.93;4.03;;;;;;;;;;5038008;28;20782;-70
2023/11/27 09:05:10;;;;;;;11.57;5.70;;;;;;;;;;5030402;28;20028;-72
2023/11/27 09:07:35;;;;;;;8.37;4.43;;;;;;;;;;5034352;28;20497;-68
2023/11/27 09:10:02;;;;;;;9.67;5.07;;;;;;;;;;5033439;28;20397;-70
2023/11/27 09:12:27;;;;;;;12.03;5.13;;;;;;;;;;5035110;28;20029;-69
2023/11/27 09:14:53;;;;;;;7.17;2.97;;;;;;;;;;5033590;28;20477;-67
2023/11/27 09:17:18;;;;;;;7.33;3.00;;;;;;;;;;5036428;28;20051;-68
2023/11/27 09:19:44;;;;;;;10.33;5.70;;;;;;;;;;5036502;28;20017;-69
2023/11/27 09:22:09;;;;;;;10.20;5.77;;;;;;;;;;5039018;28;20464;-68
2023/11/27 09:24:37;;;;;;;11.67;6.27;;;;;;;;;;5033114;28;20099;-69
2023/11/27 09:27:02;;;;;;;12.57;5.67;;;;;;;;;;5027841;28;20380;-70
2023/11/27 09:29:27;;;;;;;12.00;6.13;;;;;;;;;;5034844;28;20029;-70
2023/11/27 09:31:53;;;;;;;10.00;5.57;;;;;;;;;;5038524;28;20318;-72
2023/11/27 09:34:18;;;;;;;9.87;5.77;;;;;;;;;;5041020;28;20017;-68
2023/11/27 09:36:43;;;;;;;12.40;5.90;;;;;;;;;;5029961;28;20071;-67
2023/11/27 09:39:11;;;;;;;12.90;6.03;;;;;;;;;;5038454;28;20020;-69
2023/11/27 09:41:36;;;;;;;11.90;6.17;;;;;;;;;;5039688;28;20961;-69
2023/11/27 09:44:02;;;;;;;10.63;5.60;;;;;;;;;;5036123;28;20025;-69
2023/11/27 09:46:31;;;;;;;12.43;6.03;;;;;;;;;;5036827;28;20032;-69
2023/11/27 09:48:57;;;;;;;10.60;5.10;;;;;;;;;;5034167;28;20473;-71
2023/11/27 09:51:22;;;;;;;12.40;6.03;;;;;;;;;;5035800;28;20510;-69
2023/11/27 09:53:50;;;;;;;14.40;6.73;;;;;;;;;;5035436;28;20151;-71
2023/11/27 09:56:17;;;;;;;9.33;4.63;;;;;;;;;;5033179;28;20013;-67
2023/11/27 09:58:42;;;;;;;13.87;7.07;;;;;;;;;;5036756;28;20028;-70
2023/11/27 10:01:13;;;;;;;11.43;6.23;;;;;;;;;;5032344;28;20477;-68
2023/11/27 10:03:39;;;;;;;11.52;5.53;;;;;;;;;;5035909;28;20601;-67
2023/11/27 10:06:06;;;;;;;11.30;6.40;;;;;;;;;;5036026;28;20021;-71
2023/11/27 10:08:31;;;;;;;13.93;7.33;;;;;;;;;;5036230;28;20254;-65
2023/11/27 10:10:57;;;;;;;12.33;6.10;;;;;;;;;;5037049;28;20029;-62
2023/11/27 10:13:35;;;;;;;11.50;5.60;;;;;;;;;;5033066;28;20100;-63
2023/11/27 10:16:02;;;;;;;8.50;4.27;;;;;;;;;;5038375;28;20022;-62
2023/11/27 10:18:28;;;;;;;10.53;4.67;;;;;;;;;;5032748;28;20032;-65
2023/11/27 10:20:54;;;;;;;8.47;4.13;;;;;;;;;;5036168;28;20163;-65
2023/11/27 10:23:20;;;;;;;12.50;6.30;;;;;;;;;;5032743;28;20198;-65
2023/11/27 10:25:45;;;;;;;9.90;4.83;;;;;;;;;;5039824;28;20517;-65
2023/11/27 10:28:11;;;;;;;10.93;5.60;;;;;;;;;;5036157;28;20028;-66
2023/11/27 10:30:36;;;;;;;11.40;5.70;;;;;;;;;;5038546;28;20029;-63
2023/11/27 10:33:01;;;;;;;12.50;6.70;;;;;;;;;;5038495;28;20656;-62
2023/11/27 10:35:29;;;;;;;9.77;4.50;;;;;;;;;;5032096;28;20022;-64
2023/11/27 10:37:55;;;;;;;5.80;3.33;;;;;;;;;;5043267;28;20021;-64
2023/11/27 10:40:21;;;;;;;11.03;5.93;;;;;;;;;;5038288;28;20429;-63
2023/11/27 10:42:47;;;;;;;12.73;6.17;;;;;;;;;;5043402;28;20416;-63
2023/11/27 10:45:17;;;;;;;8.60;4.67;;;;;;;;;;5037172;28;20021;-63
2023/11/27 10:47:47;;;;;;;8.07;4.40;;;;;;;;;;5040036;28;20425;-63
2023/11/27 10:50:15;;;;;;;8.07;3.67;;;;;;;;;;5036517;28;20455;-62
2023/11/27 10:52:43;;;;;;;8.73;3.73;;;;;;;;;;5039855;28;20500;-62
2023/11/27 10:55:09;;;;;;;10.70;4.23;;;;;;;;;;5044236;28;20017;-63
2023/11/27 10:57:37;;;;;;;10.43;4.57;;;;;;;;;;5038254;28;20013;-62
2023/11/27 11:00:04;;;;;;;7.40;3.90;;;;;;;;;;5038242;28;20439;-64
2023/11/27 11:02:32;;;;;;;6.87;3.03;;;;;;;;;;5041826;28;20104;-63
2023/11/27 11:05:00;;;;;;;5.47;2.90;;;;;;;;;;5035359;28;20017;-63
2023/11/27 11:07:28;;;;;;;9.07;4.10;;;;;;;;;;5036911;28;20017;-62
2023/11/27 11:09:59;;;;;;;4.00;2.07;;;;;;;;;;5034114;28;20609;-63
2023/11/27 11:12:25;;;;;;;5.07;2.27;;;;;;;;;;5037163;28;20442;-64
2023/11/27 11:14:54;;;;;;;7.33;3.47;;;;;;;;;;5039778;28;20017;-64
2023/11/27 11:17:25;;;;;;;11.80;2.90;;;;;;;;;;5036842;28;20021;-64
2023/11/27 11:19:57;;;;;;;7.88;3.47;;;;;;;;;;5038033;28;20016;-62
2023/11/27 11:22:23;;;;;;;8.90;3.77;;;;;;;;;;5036365;28;20041;-64
2023/11/27 11:25:08;;;;;;;6.33;2.53;;;;;;;;;;5040468;28;20386;-64
2023/11/27 11:27:52;;;;;;;6.27;3.30;;;;;;;;;;5035313;28;20056;-63
2023/11/27 11:30:20;;;;;;;5.27;2.50;;;;;;;;;;5040412;28;20025;-67
2023/11/27 11:32:46;;;;;;;7.30;2.30;;;;;;;;;;5034167;28;20103;-63
2023/11/27 11:35:11;;;;;;;4.97;2.53;;;;;;;;;;5042418;28;20115;-64
2023/11/27 11:37:47;;;;;;;10.07;4.03;;;;;;;;;;5042987;28;20078;-64
2023/11/27 11:40:14;;;;;;;6.50;2.23;;;;;;;;;;5039884;28;20013;-65
2023/11/27 11:42:44;;;;;;;4.00;2.43;;;;;;;;;;5035808;28;20470;-63
2023/11/27 11:45:43;;;;;;;2.87;1.53;;;;;;;;;;5037387;28;20595;-64
2023/11/27 11:48:01;;;;;;;;;;;;;;;;;;5042004;28;20618;-65
2023/11/27 11:50:30;;;;;;;3.63;1.90;;;;;;;;;;5037935;28;19908;-65
2023/11/27 11:52:55;;;;;;;6.33;2.50;;;;;;;;;;5039308;28;20037;-63
2023/11/27 11:55:22;;;;;;;6.50;3.17;;;;;;;;;;5035413;28;20017;-64
2023/11/27 11:57:48;;;;;;;5.30;1.80;;;;;;;;;;5040722;28;20073;-63
2023/11/27 12:00:19;;;;;;;5.00;1.87;;;;;;;;;;5034324;28;20402;-65
2023/11/27 12:02:45;;;;;;;2.08;1.20;;;;;;;;;;5037630;28;20139;-64
2023/11/27 12:05:12;;;;;;;2.73;1.47;;;;;;;;;;5039763;28;20489;-62
2023/11/27 12:07:38;;;;;;;2.90;1.60;;;;;;;;;;5034218;28;20027;-65
2023/11/27 12:10:06;;;;;;;3.20;1.83;;;;;;;;;;5038819;28;20579;-63
2023/11/27 12:12:31;;;;;;;4.37;2.03;;;;;;;;;;5034974;28;20106;-65
2023/11/27 12:14:57;;;;;;;4.67;1.67;;;;;;;;;;5035783;28;20052;-64
2023/11/27 12:17:22;;;;;;;7.53;3.50;;;;;;;;;;5040315;28;20080;-62
2023/11/27 12:19:47;;;;;;;4.20;2.00;;;;;;;;;;5032335;28;20021;-63
2023/11/27 12:22:13;;;;;;;6.40;2.93;;;;;;;;;;5040023;28;20045;-63
2023/11/27 12:24:45;;;;;;;6.83;2.90;;;;;;;;;;5037922;28;20036;-65
2023/11/27 12:27:10;;;;;;;3.23;1.57;;;;;;;;;;5034879;28;20026;-66
2023/11/27 12:29:38;;;;;;;6.07;2.90;;;;;;;;;;5035601;28;20021;-64
2023/11/27 12:32:04;;;;;;;7.23;2.77;;;;;;;;;;5040710;28;20017;-63
2023/11/27 12:34:29;;;;;;;4.60;2.07;;;;;;;;;;5040227;28;20035;-63
2023/11/27 12:36:54;;;;;;;6.03;2.80;;;;;;;;;;5039055;28;20025;-64
2023/11/27 12:39:25;;;;;;;5.43;2.20;;;;;;;;;;5038667;28;20032;-63
2023/11/27 12:42:03;;;;;;;5.28;2.55;;;;;;;;;;5036742;28;20033;-67
2023/11/27 12:44:29;;;;;;;2.60;1.53;;;;;;;;;;5038599;28;20029;-66
2023/11/27 12:46:55;;;;;;;5.07;2.33;;;;;;;;;;5039179;28;20465;-63
2023/11/27 12:49:23;;;;;;;5.97;2.70;;;;;;;;;;5039961;28;20024;-65
2023/11/27 12:51:52;;;;;;;4.37;2.20;;;;;;;;;;5032643;28;20528;-62
2023/11/27 12:54:21;;;;;;;7.73;2.83;;;;;;;;;;5036935;28;20016;-65
2023/11/27 12:56:59;;;;;;;5.40;2.10;;;;;;;;;;5041374;28;20017;-65
2023/11/27 12:59:24;;;;;;;6.20;3.00;;;;;;;;;;5033141;28;20389;-64
2023/11/27 13:01:58;;;;;;;6.03;2.90;;;;;;;;;;5042179;28;20025;-65
2023/11/27 13:04:31;;;;;;;2.20;1.27;;;;;;;;;;5032601;28;20037;-65
2023/11/27 13:07:00;;;;;;;5.43;2.47;;;;;;;;;;5041412;28;20559;-64
2023/11/27 13:09:26;;;;;;;5.17;2.53;;;;;;;;;;5033776;28;20108;-65
2023/11/27 13:11:52;;;;;;;3.23;1.70;;;;;;;;;;5033484;28;20469;-66
2023/11/27 13:14:18;;;;;;;4.63;2.33;;;;;;;;;;5036456;28;20021;-64
2023/11/27 13:16:43;;;;;;;5.67;2.63;;;;;;;;;;5032778;28;20499;-64
2023/11/27 13:19:12;;;;;;;3.73;1.53;;;;;;;;;;5038109;28;20017;-64
2023/11/27 13:21:37;;;;;;;7.03;3.07;;;;;;;;;;5034337;28;20401;-64
2023/11/27 13:24:02;;;;;;;3.23;2.00;;;;;;;;;;5033594;28;20012;-67
2023/11/27 13:26:28;;;;;;;4.70;2.27;;;;;;;;;;5037550;28;20028;-65
2023/11/27 13:28:54;;;;;;;3.47;1.63;;;;;;;;;;5033337;28;20021;-65
2023/11/27 13:31:20;;;;;;;4.93;2.50;;;;;;;;;;5040588;28;20025;-64
2023/11/27 13:33:45;;;;;;;4.13;2.23;;;;;;;;;;5039246;28;20088;-65
2023/11/27 13:36:18;;;;;;;3.87;1.57;;;;;;;;;;5035452;28;20021;-65
2023/11/27 13:38:50;;;;;;;3.07;1.83;;;;;;;;;;5038001;28;20570;-67
2023/11/27 13:41:16;;;;;;;5.23;2.50;;;;;;;;;;5038612;28;20024;-70
2023/11/27 13:43:41;;;;;;;6.13;2.97;;;;;;;;;;5040541;28;20095;-71
2023/11/27 13:46:14;;;;;;;4.10;2.60;;;;;;;;;;5039021;28;20017;-72
2023/11/27 13:48:39;;;;;;;7.23;2.87;;;;;;;;;;5035895;28;20118;-68
2023/11/27 13:51:14;;;;;;;5.57;2.80;;;;;;;;;;5035926;28;20711;-67
2023/11/27 13:53:43;;;;;;;6.73;2.70;;;;;;;;;;5037564;28;20029;-69
2023/11/27 13:56:10;;;;;;;5.07;2.53;;;;;;;;;;5037515;28;20013;-68
2023/11/27 13:58:36;;;;;;;3.47;1.60;;;;;;;;;;5039436;28;20021;-68
2023/11/27 14:01:09;;;;;;;6.43;3.20;;;;;;;;;;5035071;28;20469;-68
2023/11/27 14:03:35;;;;;;;6.90;2.27;;;;;;;;;;5038984;28;20017;-68
2023/11/27 14:06:15;;;;;;;8.43;2.80;;;;;;;;;;5033990;28;20611;-69
2023/11/27 14:08:45;;;;;;;5.33;2.63;;;;;;;;;;5047095;28;20612;-70
2023/11/27 14:11:19;;;;;;;4.67;2.17;;;;;;;;;;5037835;28;20454;-68
2023/11/27 14:13:49;;;;;;;5.33;2.60;;;;;;;;;;5034843;28;20017;-67
2023/11/27 14:16:16;;;;;;;6.67;3.20;;;;;;;;;;5038563;28;20017;-68
2023/11/27 14:18:50;;;;;;;4.50;2.20;;;;;;;;;;5031727;28;20082;-69
2023/11/27 14:23:49;;;;;;;2.87;1.50;;;;;;;;;;5033669;28;20096;-69